Time;durP1;ratioP1;P1;durP2;ratioP2;P2;SDS_P1;SDS_P2;PMS_P1;PMS_P2;Temp;Humidity;BMP_temperature;BMP_pressure;BME280_temperature;BME280_humidity;BME280_pressure;Samples;Min_cycle;Max_cycle;Signal;HPM_P1;HPM_P2
2022/08/28 00:00:14;;;;;;;0.30;0.30;;;16.80;99.90;;;;;;5057299;28;20584;-81
2022/08/28 00:02:40;;;;;;;0.30;0.30;;;16.80;99.90;;;;;;5056353;28;20218;-80
2022/08/28 00:05:07;;;;;;;0.30;0.30;;;16.60;99.90;;;;;;5058186;28;20189;-80
2022/08/28 00:07:34;;;;;;;0.30;0.30;;;16.60;99.90;;;;;;5079687;28;20180;-83
2022/08/28 00:09:59;;;;;;;0.40;0.40;;;16.50;99.90;;;;;;5079355;28;20179;-83
2022/08/28 00:12:26;;;;;;;0.47;0.47;;;16.50;99.90;;;;;;5079446;28;20278;-83
2022/08/28 00:14:51;;;;;;;0.37;0.37;;;16.50;99.90;;;;;;5079661;28;20191;-82
2022/08/28 00:17:17;;;;;;;0.30;0.30;;;16.40;99.90;;;;;;5078337;28;20175;-81
2022/08/28 00:19:43;;;;;;;0.40;0.40;;;16.30;99.90;;;;;;5077529;28;20167;-82
2022/08/28 00:22:09;;;;;;;0.40;0.40;;;16.30;99.90;;;;;;5063205;28;20266;-80
2022/08/28 00:24:35;;;;;;;0.40;0.40;;;16.40;99.90;;;;;;5059902;28;20280;-82
2022/08/28 00:29:45;;;;;;;0.30;0.30;;;16.60;99.90;;;;;;5062545;28;20182;-79
2022/08/28 00:32:11;;;;;;;0.47;0.47;;;16.60;99.90;;;;;;5064426;28;20171;-80
2022/08/28 00:34:37;;;;;;;0.30;0.30;;;16.60;99.90;;;;;;5065446;28;20221;-78
2022/08/28 00:37:03;;;;;;;0.40;0.40;;;16.50;99.90;;;;;;5066461;28;20186;-79
2022/08/28 00:39:29;;;;;;;0.30;0.30;;;16.50;99.90;;;;;;5066651;28;20175;-79
2022/08/28 00:41:54;;;;;;;0.40;0.40;;;16.50;99.90;;;;;;5065293;28;20167;-82
2022/08/28 00:44:23;;;;;;;0.40;0.40;;;16.60;99.90;;;;;;5064407;28;20219;-80
2022/08/28 00:46:52;;;;;;;0.30;0.30;;;16.70;99.90;;;;;;5057351;28;20622;-81
2022/08/28 00:49:22;;;;;;;0.40;0.40;;;16.70;99.90;;;;;;5055372;28;20237;-80
2022/08/28 00:52:10;;;;;;;0.37;0.37;;;16.60;99.90;;;;;;5056473;28;20566;-79
2022/08/28 00:54:50;;;;;;;0.40;0.40;;;16.60;99.90;;;;;;5058140;28;20282;-79
2022/08/28 00:57:43;;;;;;;0.40;0.40;;;16.70;99.90;;;;;;5062276;28;20183;-79
2022/08/28 01:00:20;;;;;;;0.30;0.30;;;16.80;99.90;;;;;;5051780;28;20715;-79
2022/08/28 01:02:46;;;;;;;0.30;0.30;;;16.80;99.90;;;;;;5062996;28;20234;-80
2022/08/28 01:05:14;;;;;;;0.40;0.40;;;16.60;99.90;;;;;;5062772;28;20171;-80
2022/08/28 01:07:41;;;;;;;0.40;0.40;;;16.60;99.90;;;;;;5055211;28;20175;-80
2022/08/28 01:10:10;;;;;;;0.40;0.40;;;16.70;99.90;;;;;;5055164;28;20172;-82
2022/08/28 01:12:36;;;;;;;0.40;0.40;;;16.80;99.90;;;;;;5055930;28;20186;-81
2022/08/28 01:15:11;;;;;;;0.40;0.40;;;16.90;99.90;;;;;;5056212;28;20167;-80
2022/08/28 01:17:39;;;;;;;0.40;0.40;;;16.80;99.90;;;;;;5055769;28;20202;-79
2022/08/28 01:20:11;;;;;;;0.33;0.33;;;16.70;99.90;;;;;;5054860;28;20175;-79
2022/08/28 01:22:41;;;;;;;0.40;0.40;;;16.80;99.90;;;;;;5054975;28;20294;-81
2022/08/28 01:25:13;;;;;;;0.47;0.47;;;16.80;99.90;;;;;;5055368;28;20636;-80
2022/08/28 01:27:40;;;;;;;0.30;0.30;;;16.90;99.90;;;;;;5055240;28;20186;-81
2022/08/28 01:30:11;;;;;;;0.40;0.40;;;16.90;99.90;;;;;;5054666;28;20178;-82
2022/08/28 01:32:40;;;;;;;0.30;0.30;;;16.80;99.90;;;;;;5055376;28;20183;-81
2022/08/28 01:35:10;;;;;;;0.30;0.30;;;16.70;99.90;;;;;;5055232;28;20190;-80
2022/08/28 01:37:36;;;;;;;0.30;0.30;;;16.70;99.90;;;;;;5055411;28;20183;-80
2022/08/28 01:40:08;;;;;;;0.30;0.30;;;16.70;99.90;;;;;;5055358;28;20171;-81
2022/08/28 01:42:41;;;;;;;0.30;0.30;;;16.70;99.90;;;;;;5055059;28;20207;-81
2022/08/28 01:45:11;;;;;;;0.47;0.47;;;16.80;99.90;;;;;;5054679;28;20266;-81
2022/08/28 01:47:38;;;;;;;0.40;0.40;;;16.90;99.90;;;;;;5055109;28;20171;-80
2022/08/28 01:50:05;;;;;;;0.30;0.30;;;16.90;99.90;;;;;;5054814;28;20175;-79
2022/08/28 01:52:31;;;;;;;0.40;0.40;;;16.90;99.90;;;;;;5054796;28;20584;-79
2022/08/28 01:54:57;;;;;;;0.40;0.40;;;16.90;99.90;;;;;;5054081;28;20229;-80
2022/08/28 01:57:23;;;;;;;0.40;0.40;;;17.00;99.90;;;;;;5053882;28;20183;-80
2022/08/28 01:59:49;;;;;;;0.40;0.40;;;16.90;99.90;;;;;;5053381;28;20218;-80
2022/08/28 02:02:15;;;;;;;0.40;0.40;;;16.90;99.90;;;;;;5053823;28;20258;-80
2022/08/28 02:04:42;;;;;;;0.50;0.50;;;16.90;99.90;;;;;;5053651;28;20654;-80
2022/08/28 02:07:07;;;;;;;0.40;0.40;;;16.90;99.90;;;;;;5052886;28;20232;-79
2022/08/28 02:09:33;;;;;;;0.30;0.30;;;17.00;99.90;;;;;;5052696;28;20163;-79
2022/08/28 02:11:59;;;;;;;0.50;0.50;;;17.00;99.90;;;;;;5052995;28;20539;-79
2022/08/28 02:14:24;;;;;;;0.40;0.40;;;17.00;99.90;;;;;;5052847;28;20676;-79
2022/08/28 02:16:50;;;;;;;0.37;0.37;;;17.00;99.90;;;;;;5052345;28;20221;-80
2022/08/28 02:19:16;;;;;;;0.40;0.40;;;17.00;99.90;;;;;;5052718;28;20180;-80
2022/08/28 02:21:42;;;;;;;0.40;0.40;;;17.00;99.90;;;;;;5053006;28;20198;-79
2022/08/28 02:24:07;;;;;;;0.40;0.40;;;17.10;99.90;;;;;;5053419;28;20223;-79
2022/08/28 02:26:33;;;;;;;0.40;0.40;;;17.20;99.90;;;;;;5053585;28;20178;-80
2022/08/28 02:28:59;;;;;;;0.50;0.50;;;17.20;99.90;;;;;;5052674;28;20175;-79
2022/08/28 02:31:26;;;;;;;0.40;0.40;;;17.00;99.90;;;;;;5052620;28;20182;-79
2022/08/28 02:33:51;;;;;;;0.40;0.40;;;17.00;99.90;;;;;;5053159;28;20217;-80
2022/08/28 02:36:17;;;;;;;0.40;0.40;;;17.20;99.90;;;;;;5053339;28;20568;-79
2022/08/28 02:38:44;;;;;;;0.33;0.33;;;17.20;99.90;;;;;;5053585;28;20179;-80
2022/08/28 02:41:11;;;;;;;0.40;0.40;;;17.30;99.90;;;;;;5052501;28;20178;-79
2022/08/28 02:43:36;;;;;;;0.40;0.40;;;17.40;99.90;;;;;;5053206;28;20245;-79
2022/08/28 02:46:03;;;;;;;0.40;0.40;;;17.50;99.90;;;;;;5053901;28;20585;-81
2022/08/28 02:48:31;;;;;;;0.40;0.40;;;17.50;99.90;;;;;;5053982;28;20674;-80
2022/08/28 02:51:02;;;;;;;0.40;0.40;;;17.50;99.90;;;;;;5053200;28;20180;-81
2022/08/28 02:53:29;;;;;;;0.33;0.33;;;17.60;99.90;;;;;;5053092;28;20202;-81
2022/08/28 02:55:56;;;;;;;0.40;0.40;;;17.60;99.90;;;;;;5052929;28;20199;-79
2022/08/28 02:58:22;;;;;;;0.40;0.40;;;17.60;99.90;;;;;;5052713;28;20566;-81
2022/08/28 03:00:48;;;;;;;0.40;0.40;;;17.60;99.90;;;;;;5053089;28;20669;-82
2022/08/28 03:03:14;;;;;;;0.30;0.30;;;17.60;99.90;;;;;;5052954;28;20222;-81
2022/08/28 03:05:40;;;;;;;0.40;0.40;;;17.50;99.90;;;;;;5053211;28;20193;-80
2022/08/28 03:08:06;;;;;;;0.30;0.30;;;17.50;99.90;;;;;;5035218;28;20179;-80
2022/08/28 03:10:31;;;;;;;0.30;0.30;;;17.40;99.90;;;;;;5052833;28;20179;-81
2022/08/28 03:12:57;;;;;;;0.30;0.30;;;17.40;99.90;;;;;;5053215;28;20291;-81
2022/08/28 03:15:22;;;;;;;0.33;0.33;;;17.50;99.90;;;;;;5053202;28;20190;-79
2022/08/28 03:17:48;;;;;;;0.40;0.40;;;17.40;99.90;;;;;;5053511;28;20266;-81
2022/08/28 03:20:15;;;;;;;0.40;0.40;;;17.40;99.90;;;;;;5053250;28;20636;-79
2022/08/28 03:25:24;;;;;;;0.40;0.40;;;17.40;99.90;;;;;;5053612;28;20229;-80
2022/08/28 03:27:50;;;;;;;0.40;0.40;;;17.40;99.90;;;;;;5055652;28;20179;-79
2022/08/28 03:30:17;;;;;;;0.40;0.40;;;17.40;99.90;;;;;;5056403;28;20183;-79
2022/08/28 03:32:43;;;;;;;0.30;0.30;;;17.40;99.90;;;;;;5056440;28;20208;-81
2022/08/28 03:35:08;;;;;;;0.30;0.30;;;17.40;99.90;;;;;;5056494;28;20187;-81
2022/08/28 03:37:35;;;;;;;0.30;0.30;;;17.40;99.90;;;;;;5057063;28;20569;-79
2022/08/28 03:40:00;;;;;;;0.40;0.40;;;17.40;99.90;;;;;;5056285;28;20843;-79
2022/08/28 03:42:26;;;;;;;0.40;0.40;;;17.30;99.90;;;;;;5057087;28;20202;-79
2022/08/28 03:44:53;;;;;;;0.33;0.33;;;17.30;99.90;;;;;;5056606;28;20190;-80
2022/08/28 03:47:19;;;;;;;0.30;0.30;;;17.30;99.90;;;;;;5057078;28;20195;-79
2022/08/28 03:49:44;;;;;;;0.30;0.30;;;17.30;99.90;;;;;;5055966;28;20175;-79
2022/08/28 03:52:10;;;;;;;0.40;0.40;;;17.30;99.90;;;;;;5056118;28;20167;-80
2022/08/28 03:54:36;;;;;;;0.40;0.40;;;17.30;99.90;;;;;;5055603;28;20282;-80
2022/08/28 03:57:02;;;;;;;0.40;0.40;;;17.40;99.90;;;;;;5056048;28;20195;-81
2022/08/28 03:59:27;;;;;;;0.47;0.47;;;17.40;99.90;;;;;;5055563;28;20175;-78
2022/08/28 04:01:53;;;;;;;0.40;0.40;;;17.30;99.90;;;;;;5055406;28;20224;-79
2022/08/28 04:04:19;;;;;;;0.30;0.30;;;17.30;99.90;;;;;;5055861;28;20221;-80
2022/08/28 04:06:45;;;;;;;0.40;0.40;;;17.30;99.90;;;;;;5056565;28;20167;-81
2022/08/28 04:09:10;;;;;;;0.37;0.37;;;17.30;99.90;;;;;;5055714;28;20544;-79
2022/08/28 04:11:42;;;;;;;0.30;0.30;;;17.30;99.90;;;;;;5056423;28;20319;-78
2022/08/28 04:14:10;;;;;;;0.40;0.40;;;17.40;99.90;;;;;;5055978;28;20261;-79
2022/08/28 04:16:37;;;;;;;0.33;0.33;;;17.40;99.90;;;;;;5055663;28;20733;-78
2022/08/28 04:19:03;;;;;;;0.40;0.40;;;17.50;99.90;;;;;;5054821;28;20209;-78
2022/08/28 04:21:29;;;;;;;0.40;0.40;;;17.50;99.90;;;;;;5054770;28;20195;-78
2022/08/28 04:23:54;;;;;;;0.40;0.40;;;17.60;99.90;;;;;;5055131;28;20226;-79
2022/08/28 04:26:23;;;;;;;0.40;0.40;;;17.60;99.90;;;;;;5055862;28;20224;-80
2022/08/28 04:28:49;;;;;;;0.30;0.30;;;17.60;99.90;;;;;;5055840;28;20635;-80
2022/08/28 04:31:15;;;;;;;0.30;0.30;;;17.60;99.90;;;;;;5057049;28;20544;-80
2022/08/28 04:33:42;;;;;;;0.30;0.30;;;17.60;99.90;;;;;;5058872;28;20218;-80
2022/08/28 04:36:10;;;;;;;0.30;0.30;;;17.60;99.90;;;;;;5057685;28;20183;-81
2022/08/28 04:38:37;;;;;;;0.40;0.40;;;17.70;99.90;;;;;;5056678;28;20262;-80
2022/08/28 04:41:05;;;;;;;0.40;0.40;;;17.70;99.90;;;;;;5055821;28;20172;-80
2022/08/28 04:43:30;;;;;;;0.40;0.40;;;17.70;99.90;;;;;;5073181;28;20203;-81
2022/08/28 04:45:56;;;;;;;0.30;0.30;;;17.70;99.90;;;;;;5078654;28;20175;-82
2022/08/28 04:48:22;;;;;;;0.30;0.30;;;17.70;99.90;;;;;;5075428;28;20187;-80
2022/08/28 04:50:48;;;;;;;0.30;0.30;;;17.80;99.90;;;;;;5074495;28;20198;-79
2022/08/28 04:53:16;;;;;;;0.30;0.30;;;17.80;99.90;;;;;;5076796;28;20195;-81
2022/08/28 04:55:47;;;;;;;0.30;0.30;;;17.80;99.90;;;;;;5076202;28;20205;-80
2022/08/28 04:58:14;;;;;;;0.30;0.30;;;17.80;99.90;;;;;;5069902;28;20171;-79
2022/08/28 05:00:42;;;;;;;0.40;0.40;;;17.80;99.90;;;;;;5070860;28;20176;-81
2022/08/28 05:03:10;;;;;;;0.30;0.30;;;17.80;99.90;;;;;;5066913;28;20226;-81
2022/08/28 05:05:41;;;;;;;0.30;0.30;;;17.80;99.90;;;;;;5058328;28;20207;-79
2022/08/28 05:08:06;;;;;;;0.40;0.40;;;17.90;99.90;;;;;;5058526;28;20266;-81
2022/08/28 05:10:34;;;;;;;0.30;0.30;;;17.80;99.90;;;;;;5062724;28;20199;-82
2022/08/28 05:12:59;;;;;;;0.40;0.40;;;17.90;99.90;;;;;;5078750;28;20179;-83
2022/08/28 05:15:25;;;;;;;0.30;0.30;;;17.90;99.90;;;;;;5078573;28;20183;-82
2022/08/28 05:17:50;;;;;;;0.30;0.30;;;18.00;99.90;;;;;;5078544;28;20167;-83
2022/08/28 05:20:16;;;;;;;0.30;0.30;;;18.00;99.90;;;;;;5078389;28;20188;-84
2022/08/28 05:22:41;;;;;;;0.40;0.40;;;18.00;99.90;;;;;;5071502;28;20223;-79
2022/08/28 05:25:07;;;;;;;0.40;0.40;;;17.90;99.90;;;;;;5055037;28;20516;-80
2022/08/28 05:27:34;;;;;;;0.30;0.30;;;18.00;99.90;;;;;;5054781;28;20544;-80
2022/08/28 05:29:59;;;;;;;0.40;0.40;;;18.00;99.90;;;;;;5054116;28;20309;-80
2022/08/28 05:32:25;;;;;;;0.30;0.30;;;18.20;99.90;;;;;;5055111;28;20592;-80
2022/08/28 05:34:52;;;;;;;0.33;0.33;;;18.10;99.90;;;;;;5055565;28;20183;-80
2022/08/28 05:37:18;;;;;;;0.40;0.40;;;18.10;99.90;;;;;;5054825;28;20193;-79
2022/08/28 05:39:43;;;;;;;0.40;0.40;;;18.10;99.90;;;;;;5055037;28;20175;-80
2022/08/28 05:42:09;;;;;;;0.40;0.40;;;18.10;99.90;;;;;;5056995;28;20197;-80
2022/08/28 05:44:34;;;;;;;0.30;0.30;;;18.90;99.90;;;;;;5061843;28;20233;-80
2022/08/28 05:47:01;;;;;;;0.30;0.30;;;18.20;99.90;;;;;;5064169;28;20297;-79
2022/08/28 05:49:27;;;;;;;0.33;0.33;;;18.20;99.90;;;;;;5073568;28;20179;-78
2022/08/28 05:51:52;;;;;;;0.33;0.33;;;18.30;99.90;;;;;;5069971;28;20185;-79
2022/08/28 05:54:18;;;;;;;0.30;0.30;;;18.30;99.90;;;;;;5063072;28;20203;-79
2022/08/28 05:56:44;;;;;;;0.40;0.40;;;18.40;99.90;;;;;;5068166;28;20175;-78
2022/08/28 05:59:11;;;;;;;0.30;0.30;;;18.40;99.90;;;;;;5069608;28;20616;-79
2022/08/28 06:01:39;;;;;;;0.40;0.40;;;18.50;99.90;;;;;;5054460;28;20179;-80
2022/08/28 06:04:10;;;;;;;0.30;0.30;;;18.60;99.90;;;;;;5054111;28;20704;-80
2022/08/28 06:06:38;;;;;;;0.30;0.30;;;18.60;99.90;;;;;;5053934;28;20534;-80
2022/08/28 06:09:07;;;;;;;0.40;0.40;;;18.90;99.90;;;;;;5053867;28;20603;-80
2022/08/28 06:11:33;;;;;;;0.33;0.33;;;18.70;99.90;;;;;;5053833;28;20167;-80
2022/08/28 06:14:00;;;;;;;0.30;0.30;;;18.70;99.90;;;;;;5052979;28;20195;-79
2022/08/28 06:16:27;;;;;;;0.30;0.30;;;18.70;99.90;;;;;;5053714;28;20225;-81
2022/08/28 06:18:52;;;;;;;0.40;0.40;;;18.70;99.90;;;;;;5053037;28;20183;-80
2022/08/28 06:21:18;;;;;;;0.30;0.30;;;18.70;99.90;;;;;;5054274;28;20240;-80
2022/08/28 06:23:43;;;;;;;0.30;0.30;;;18.80;99.90;;;;;;5053483;28;20215;-78
2022/08/28 06:26:10;;;;;;;0.30;0.30;;;18.80;99.90;;;;;;5054233;28;20241;-80
2022/08/28 06:28:35;;;;;;;0.43;0.43;;;18.90;99.90;;;;;;5053374;28;20178;-79
2022/08/28 06:31:03;;;;;;;0.40;0.40;;;19.00;99.90;;;;;;5052823;28;20547;-80
2022/08/28 06:33:29;;;;;;;0.30;0.30;;;18.90;99.90;;;;;;5053397;28;20231;-79
2022/08/28 06:35:55;;;;;;;0.30;0.30;;;19.00;99.90;;;;;;5053758;28;20175;-81
2022/08/28 06:38:23;;;;;;;0.30;0.30;;;19.10;99.90;;;;;;5054346;28;20254;-80
2022/08/28 06:40:52;;;;;;;0.30;0.30;;;19.20;99.90;;;;;;5053112;28;20378;-80
2022/08/28 06:43:20;;;;;;;0.40;0.40;;;19.20;99.90;;;;;;5053442;28;20298;-80
2022/08/28 06:45:48;;;;;;;0.30;0.30;;;19.20;99.90;;;;;;5054078;28;20175;-79
2022/08/28 06:48:15;;;;;;;0.40;0.40;;;19.10;99.90;;;;;;5054122;28;20659;-79
2022/08/28 06:50:47;;;;;;;0.40;0.40;;;19.00;99.90;;;;;;5052277;28;20175;-78
2022/08/28 06:53:15;;;;;;;0.40;0.40;;;19.00;99.90;;;;;;5054200;28;20563;-78
2022/08/28 06:55:41;;;;;;;0.30;0.30;;;19.00;99.90;;;;;;5056646;28;20179;-81
2022/08/28 06:58:08;;;;;;;0.40;0.40;;;19.10;99.90;;;;;;5058141;28;20175;-82
2022/08/28 07:00:35;;;;;;;0.40;0.40;;;19.20;99.90;;;;;;5054118;28;20176;-80
2022/08/28 07:03:03;;;;;;;0.40;0.40;;;19.20;99.90;;;;;;5056574;28;20199;-79
2022/08/28 07:05:29;;;;;;;0.30;0.30;;;19.20;99.90;;;;;;5058485;28;20172;-81
2022/08/28 07:07:55;;;;;;;0.40;0.40;;;19.20;99.90;;;;;;5057803;28;20191;-80
2022/08/28 07:10:21;;;;;;;0.40;0.40;;;19.30;99.90;;;;;;5057443;28;20179;-78
2022/08/28 07:12:49;;;;;;;0.37;0.37;;;19.30;99.90;;;;;;5057548;28;20290;-80
2022/08/28 07:15:16;;;;;;;0.40;0.40;;;19.30;99.90;;;;;;5057723;28;20187;-80
2022/08/28 07:17:41;;;;;;;0.30;0.30;;;19.20;99.90;;;;;;5057865;28;20175;-79
2022/08/28 07:20:10;;;;;;;0.33;0.33;;;19.30;99.90;;;;;;5056972;28;20230;-79
2022/08/28 07:22:36;;;;;;;0.30;0.30;;;19.40;99.90;;;;;;5056652;28;20226;-82
2022/08/28 07:25:03;;;;;;;0.40;0.40;;;19.40;99.90;;;;;;5055637;28;20179;-82
2022/08/28 07:27:30;;;;;;;0.30;0.30;;;19.50;99.90;;;;;;5057114;28;20209;-81
2022/08/28 07:29:57;;;;;;;0.40;0.40;;;19.60;99.90;;;;;;5056350;28;20179;-82
2022/08/28 07:32:23;;;;;;;0.30;0.30;;;19.70;99.90;;;;;;5056526;28;20584;-81
2022/08/28 07:34:48;;;;;;;0.30;0.30;;;19.80;99.90;;;;;;5056551;28;20648;-81
2022/08/28 07:37:15;;;;;;;0.40;0.40;;;19.80;99.90;;;;;;5056149;28;20640;-80
2022/08/28 07:39:41;;;;;;;0.30;0.30;;;20.00;99.90;;;;;;5056393;28;20210;-81
2022/08/28 07:42:07;;;;;;;0.40;0.40;;;20.10;99.90;;;;;;5056535;28;20190;-79
2022/08/28 07:44:48;;;;;;;0.40;0.40;;;20.10;99.90;;;;;;5055821;28;20631;-79
2022/08/28 07:47:16;;;;;;;0.30;0.30;;;20.00;99.90;;;;;;5056138;28;20191;-79
2022/08/28 07:49:42;;;;;;;0.40;0.40;;;20.00;99.90;;;;;;5055733;28;20190;-81
2022/08/28 07:52:09;;;;;;;0.40;0.40;;;19.90;99.90;;;;;;5055283;28;20221;-82
2022/08/28 07:54:35;;;;;;;0.30;0.30;;;19.90;99.90;;;;;;5055914;28;20856;-79
2022/08/28 07:57:03;;;;;;;0.40;0.40;;;19.90;99.90;;;;;;5056641;28;20174;-80
2022/08/28 07:59:29;;;;;;;0.40;0.40;;;20.10;99.90;;;;;;5056187;28;20183;-79
2022/08/28 08:01:54;;;;;;;0.40;0.40;;;20.30;99.90;;;;;;5055994;28;20178;-80
2022/08/28 08:04:22;;;;;;;0.40;0.40;;;20.10;99.90;;;;;;5045748;28;20214;-80
2022/08/28 08:06:49;;;;;;;0.40;0.40;;;20.10;99.90;;;;;;5041533;28;20705;-78
2022/08/28 08:09:16;;;;;;;0.40;0.40;;;20.00;99.90;;;;;;5044849;28;20184;-79
2022/08/28 08:11:43;;;;;;;0.30;0.30;;;20.10;99.90;;;;;;5045354;28;20172;-79
2022/08/28 08:14:09;;;;;;;0.30;0.30;;;20.00;99.90;;;;;;5044124;28;20767;-82
2022/08/28 08:16:40;;;;;;;0.40;0.40;;;20.00;99.90;;;;;;5041229;28;20176;-79
2022/08/28 08:19:08;;;;;;;0.40;0.40;;;20.00;99.90;;;;;;5040064;28;20175;-83
2022/08/28 08:21:34;;;;;;;0.40;0.40;;;20.00;99.90;;;;;;5039709;28;20263;-82
2022/08/28 08:24:00;;;;;;;0.40;0.40;;;20.00;99.90;;;;;;5039991;28;20215;-85
2022/08/28 08:26:27;;;;;;;0.40;0.40;;;20.10;99.90;;;;;;5040307;28;20180;-82
2022/08/28 08:28:53;;;;;;;0.40;0.40;;;20.30;99.90;;;;;;5040588;28;20206;-83
2022/08/28 08:31:22;;;;;;;0.40;0.40;;;20.60;99.90;;;;;;5039360;28;20199;-84
2022/08/28 08:33:51;;;;;;;0.40;0.40;;;21.00;1.00;;;;;;5039178;28;20225;-83
2022/08/28 08:36:19;;;;;;;0.30;0.30;;;21.20;1.00;;;;;;5042414;28;20653;-82
2022/08/28 08:38:45;;;;;;;0.50;0.50;;;21.30;1.00;;;;;;5039436;28;20176;-83
2022/08/28 08:41:20;;;;;;;0.40;0.40;;;21.40;1.00;;;;;;5038544;28;20187;-84
2022/08/28 08:43:59;;;;;;;0.40;0.40;;;21.40;1.00;;;;;;5039427;28;20246;-84
2022/08/28 08:47:09;;;;;;;0.30;0.30;;;21.90;1.00;;;;;;5049851;28;20184;-83
2022/08/28 08:49:37;;;;;;;0.40;0.40;;;21.80;1.00;;;;;;5022175;28;20247;-84
2022/08/28 08:52:34;;;;;;;0.40;0.40;;;22.00;1.00;;;;;;5039365;28;20235;-83
2022/08/28 08:55:21;;;;;;;0.50;0.50;;;22.20;1.00;;;;;;5047722;28;20172;-83
2022/08/28 08:57:53;;;;;;;0.47;0.47;;;23.10;99.90;;;;;;5059696;28;20710;-83
2022/08/28 09:00:19;;;;;;;0.50;0.50;;;23.20;99.90;;;;;;5056712;28;20588;-84
2022/08/28 09:03:12;;;;;;;0.50;0.50;;;22.80;99.90;;;;;;5057659;28;20191;-83
2022/08/28 09:05:50;;;;;;;0.40;0.40;;;22.70;1.00;;;;;;5060239;28;20175;-84
2022/08/28 09:08:38;;;;;;;0.50;0.50;;;22.50;99.90;;;;;;5056676;28;20240;-84
2022/08/28 09:11:28;;;;;;;0.40;0.40;;;22.40;1.00;;;;;;5059565;28;20186;-83
2022/08/28 09:14:01;;;;;;;0.30;0.30;;;22.50;1.00;;;;;;5049050;28;20290;-85
2022/08/28 09:16:39;;;;;;;0.37;0.37;;;22.80;1.00;;;;;;5064076;28;20175;-85
2022/08/28 09:19:08;;;;;;;0.40;0.40;;;22.40;1.00;;;;;;5051213;28;20730;-83
2022/08/28 09:21:39;;;;;;;0.50;0.50;;;22.20;1.00;;;;;;5062037;28;20172;-85
2022/08/28 09:24:16;;;;;;;0.50;0.50;;;22.10;1.00;;;;;;5062325;28;20222;-85
2022/08/28 09:26:49;;;;;;;0.47;0.47;;;22.10;1.00;;;;;;5060834;28;20228;-84
2022/08/28 09:29:17;;;;;;;0.50;0.50;;;21.70;1.00;;;;;;5062183;28;20241;-84
2022/08/28 09:31:43;;;;;;;0.30;0.30;;;21.70;1.00;;;;;;5058441;28;20168;-85
2022/08/28 09:34:28;;;;;;;0.40;0.40;;;21.90;1.00;;;;;;5057416;28;20294;-85
2022/08/28 09:36:57;;;;;;;0.50;0.50;;;22.00;1.00;;;;;;5052678;28;20171;-83
2022/08/28 09:39:26;;;;;;;0.47;0.47;;;22.10;1.00;;;;;;5060926;28;20225;-84
2022/08/28 09:45:17;;;;;;;0.40;0.40;;;22.10;1.00;;;;;;5036830;28;20625;-84
2022/08/28 09:47:59;;;;;;;0.40;0.40;;;22.10;1.00;;;;;;5036935;28;20195;-83
2022/08/28 09:50:32;;;;;;;0.50;0.50;;;22.30;1.00;;;;;;5036991;28;20176;-84
2022/08/28 09:53:08;;;;;;;0.30;0.30;;;22.70;99.90;;;;;;5047757;28;20219;-84
2022/08/28 09:55:45;;;;;;;0.30;0.30;;;23.30;1.00;;;;;;5055857;28;20194;-83
2022/08/28 09:58:11;;;;;;;0.37;0.37;;;23.50;1.00;;;;;;5055663;28;20187;-82
2022/08/28 10:00:42;;;;;;;0.30;0.30;;;23.70;8.10;;;;;;5041443;28;20208;-82
2022/08/28 10:03:38;;;;;;;0.43;0.43;;;24.00;99.90;;;;;;5048384;28;20356;-82
2022/08/28 10:06:12;;;;;;;0.30;0.30;;;23.80;99.90;;;;;;5056167;28;20182;-82
2022/08/28 10:09:02;;;;;;;0.40;0.40;;;24.60;1.00;;;;;;5068358;28;20174;-87
2022/08/28 10:11:51;;;;;;;0.43;0.43;;;26.00;99.90;;;;;;5078389;28;20175;-86
2022/08/28 10:14:52;;;;;;;0.50;0.50;;;26.90;1.00;;;;;;5041056;28;20201;-84
2022/08/28 10:17:52;;;;;;;0.70;0.70;;;26.60;1.00;;;;;;5077953;28;20171;-85
2022/08/28 10:20:46;;;;;;;0.63;0.63;;;27.20;1.00;;;;;;5074146;28;20170;-82
2022/08/28 10:23:15;;;;;;;0.60;0.60;;;27.40;1.00;;;;;;5062048;28;20266;-83
2022/08/28 10:26:05;;;;;;;0.53;0.53;;;28.30;1.00;;;;;;5060771;28;20175;-82
2022/08/28 10:28:49;;;;;;;0.53;0.53;;;27.80;1.00;;;;;;5057256;28;20176;-82
2022/08/28 10:31:38;;;;;;;0.70;0.70;;;26.90;1.00;;;;;;5047317;28;20184;-83
2022/08/28 10:34:28;;;;;;;0.60;0.60;;;27.60;1.00;;;;;;5045700;28;20215;-81
2022/08/28 10:37:01;;;;;;;0.30;0.30;;;28.00;1.00;;;;;;5041805;23;20319;-76
2022/08/28 10:39:38;;;;;;;0.30;0.30;;;28.40;1.00;;;;;;4998913;28;20272;-76
2022/08/28 10:42:05;;;;;;;0.40;0.40;;;27.30;1.00;;;;;;4997075;28;20176;-76
2022/08/28 10:44:47;;;;;;;0.50;0.50;;;26.40;1.00;;;;;;4996355;28;20586;-77
2022/08/28 10:47:13;;;;;;;0.60;0.60;;;26.40;1.00;;;;;;4996449;28;20181;-76
2022/08/28 10:49:43;;;;;;;0.50;0.50;;;26.50;1.00;;;;;;4996102;28;20203;-76
2022/08/28 10:52:26;;;;;;;0.50;0.50;;;27.00;1.00;;;;;;4996195;28;20181;-76
2022/08/28 10:55:15;;;;;;;0.50;0.50;;;26.80;1.00;;;;;;4996080;28;20459;-76
2022/08/28 10:58:02;;;;;;;0.40;0.40;;;27.30;1.00;;;;;;4996171;28;20271;-77
2022/08/28 11:00:28;;;;;;;0.53;0.53;;;28.20;1.00;;;;;;4995532;28;20183;-76
2022/08/28 11:03:10;;;;;;;0.70;0.70;;;28.00;1.00;;;;;;4995783;28;20217;-76
2022/08/28 11:05:46;;;;;;;0.50;0.50;;;27.20;1.00;;;;;;4995625;28;20646;-76
2022/08/28 11:08:27;;;;;;;0.50;0.50;;;26.40;1.00;;;;;;4995900;28;20189;-75
2022/08/28 11:10:55;;;;;;;0.60;0.60;;;26.10;1.00;;;;;;4995191;28;20181;-76
2022/08/28 11:13:46;;;;;;;0.60;0.60;;;25.80;1.00;;;;;;4995581;28;20255;-76
2022/08/28 11:16:20;;;;;;;0.50;0.50;;;25.40;1.00;;;;;;4995281;28;20243;-76
2022/08/28 11:19:16;;;;;;;0.53;0.53;;;25.00;1.00;;;;;;4995371;28;20185;-80
2022/08/28 11:21:59;;;;;;;0.60;0.60;;;24.90;35.80;;;;;;4984919;28;20243;-77
2022/08/28 11:24:53;;;;;;;0.40;0.40;;;24.90;99.90;;;;;;4977811;28;20644;-76
2022/08/28 11:27:32;;;;;;;0.60;0.60;;;24.50;99.90;;;;;;4991293;28;20189;-76
2022/08/28 11:30:10;;;;;;;0.40;0.40;;;24.50;99.90;;;;;;4994853;28;20205;-76
2022/08/28 11:32:44;;;;;;;0.40;0.40;;;24.50;44.60;;;;;;4995157;28;20228;-76
2022/08/28 11:35:19;;;;;;;0.50;0.50;;;24.50;1.00;;;;;;4995034;28;20232;-76
2022/08/28 11:37:49;;;;;;;0.50;0.50;;;24.60;1.00;;;;;;4995011;28;20185;-76
2022/08/28 11:40:28;;;;;;;0.67;0.67;;;24.70;1.00;;;;;;4994760;28;20267;-76
2022/08/28 11:43:14;;;;;;;0.60;0.60;;;24.80;1.00;;;;;;4995042;28;20217;-78
2022/08/28 11:45:46;;;;;;;0.40;0.40;;;24.90;1.00;;;;;;4995320;28;20208;-76
2022/08/28 11:48:38;;;;;;;0.50;0.50;;;25.10;1.00;;;;;;4994606;28;20231;-76
2022/08/28 11:51:25;;;;;;;0.43;0.43;;;24.80;1.00;;;;;;4994727;28;20189;-75
2022/08/28 11:54:28;;;;;;;0.40;0.40;;;25.00;1.00;;;;;;4994079;28;20288;-76
2022/08/28 11:57:09;;;;;;;0.50;0.50;;;25.20;1.00;;;;;;4994864;28;20187;-76
2022/08/28 12:00:10;;;;;;;0.60;0.60;;;25.40;1.00;;;;;;4995033;28;20260;-76
2022/08/28 12:02:38;;;;;;;0.50;0.50;;;26.50;1.00;;;;;;4995030;28;20677;-76
2022/08/28 12:05:09;;;;;;;0.50;0.50;;;27.40;1.00;;;;;;4995093;28;20215;-76
2022/08/28 12:07:36;;;;;;;0.60;0.60;;;28.30;1.00;;;;;;4995167;28;20196;-76
2022/08/28 12:10:22;;;;;;;0.60;0.60;;;28.40;1.00;;;;;;4994166;28;20177;-76
2022/08/28 12:12:50;;;;;;;0.60;0.60;;;28.50;1.00;;;;;;4994712;28;20193;-76
2022/08/28 12:15:37;;;;;;;0.60;0.60;;;28.30;1.00;;;;;;4994947;28;20185;-76
2022/08/28 12:18:14;;;;;;;0.70;0.70;;;28.00;1.00;;;;;;4994815;28;20177;-76
2022/08/28 12:20:52;;;;;;;0.53;0.53;;;28.70;1.00;;;;;;4993951;28;20585;-76
2022/08/28 12:23:39;;;;;;;0.70;0.70;;;28.90;1.00;;;;;;4994372;28;20216;-76
2022/08/28 12:26:27;;;;;;;0.60;0.60;;;28.50;1.00;;;;;;4994454;28;20189;-76
2022/08/28 12:29:00;;;;;;;0.60;0.60;;;28.40;1.00;;;;;;4993976;28;20207;-76
2022/08/28 12:32:10;;;;;;;0.60;0.60;;;28.00;1.00;;;;;;4994115;28;20184;-76
2022/08/28 12:35:08;;;;;;;0.60;0.60;;;27.70;1.00;;;;;;4994175;28;20716;-76
2022/08/28 12:37:45;;;;;;;0.50;0.50;;;26.90;1.00;;;;;;4993692;28;20200;-76
2022/08/28 12:40:15;;;;;;;0.70;0.70;;;26.90;1.00;;;;;;4993756;28;20177;-77
2022/08/28 12:42:48;;;;;;;0.60;0.60;;;27.20;1.00;;;;;;4993470;28;20220;-76
2022/08/28 12:45:23;;;;;;;0.63;0.63;;;27.10;1.00;;;;;;4990969;28;20537;-76
2022/08/28 12:47:52;;;;;;;0.60;0.60;;;27.30;1.00;;;;;;4993859;28;20219;-77
2022/08/28 12:50:27;;;;;;;0.60;0.60;;;27.10;1.00;;;;;;4993491;28;20185;-76
2022/08/28 12:52:57;;;;;;;0.60;0.60;;;27.60;1.00;;;;;;4993445;28;20344;-76
2022/08/28 12:55:23;;;;;;;0.60;0.60;;;28.50;1.00;;;;;;4993869;28;20181;-78
2022/08/28 12:57:49;;;;;;;0.60;0.60;;;28.40;1.00;;;;;;4994626;28;20177;-78
2022/08/28 13:00:18;;;;;;;0.60;0.60;;;29.00;1.00;;;;;;4992090;28;20185;-75
2022/08/28 13:02:44;;;;;;;0.50;0.50;;;29.00;1.00;;;;;;4993030;28;20197;-77
2022/08/28 13:05:34;;;;;;;0.60;0.60;;;28.80;1.00;;;;;;4993816;28;20177;-79
2022/08/28 13:08:10;;;;;;;0.73;0.73;;;29.10;1.00;;;;;;4994418;28;20177;-78
2022/08/28 13:10:39;;;;;;;0.60;0.60;;;28.50;1.00;;;;;;4993097;28;20193;-77
2022/08/28 13:13:09;;;;;;;0.60;0.60;;;28.40;1.00;;;;;;4993213;28;20197;-77
2022/08/28 13:15:49;;;;;;;0.60;0.60;;;27.50;1.00;;;;;;4993524;28;20177;-76
2022/08/28 13:18:35;;;;;;;0.70;0.70;;;27.20;1.00;;;;;;4993880;28;20196;-77